Time;durP1;ratioP1;P1;durP2;ratioP2;P2;SDS_P1;SDS_P2;PMS_P1;PMS_P2;Temp;Humidity;BMP_temperature;BMP_pressure;BME280_temperature;BME280_humidity;BME280_pressure;Samples;Min_cycle;Max_cycle;Signal;HPM_P1;HPM_P2
2023/04/20 11:32:37;;;;;;;19.43;11.70;;;;;;;;;;6320822;21;1425225;-77
2023/04/20 11:35:23;;;;;;;19.17;11.50;;;;;;;;;;6358413;22;20450;-79
2023/04/20 11:38:09;;;;;;;14.82;9.43;;;;;;;;;;6357392;22;20019;-80
2023/04/20 11:40:55;;;;;;;16.30;10.10;;;;;;;;;;6358589;22;20018;-77
2023/04/20 11:43:40;;;;;;;15.10;10.30;;;;;;;;;;6358924;22;20424;-74
2023/04/20 11:46:25;;;;;;;12.70;8.07;;;;;;;;;;6358510;22;20440;-74
2023/04/20 11:49:11;;;;;;;11.48;7.55;;;;;;;;;;6358117;22;20336;-77
2023/04/20 11:51:57;;;;;;;10.90;6.43;;;;;;;;;;6358304;22;20019;-77
2023/04/20 11:54:42;;;;;;;8.48;6.40;;;;;;;;;;6358370;22;20019;-78
2023/04/20 11:57:28;;;;;;;7.50;5.22;;;;;;;;;;6358733;22;20347;-84
2023/04/20 12:00:14;;;;;;;8.52;6.47;;;;;;;;;;6358090;22;20018;-78
2023/04/20 12:03:00;;;;;;;8.63;5.80;;;;;;;;;;6358255;22;20435;-78
2023/04/20 12:05:45;;;;;;;6.65;5.70;;;;;;;;;;6358202;22;20019;-77
2023/04/20 12:08:31;;;;;;;8.32;6.18;;;;;;;;;;6358318;22;20018;-77
2023/04/20 12:11:16;;;;;;;7.72;6.18;;;;;;;;;;6358524;22;20015;-77
2023/04/20 12:14:03;;;;;;;6.57;4.85;;;;;;;;;;6358247;22;20018;-76
2023/04/20 12:16:49;;;;;;;12.07;6.45;;;;;;;;;;6358235;22;20015;-76
2023/04/20 12:19:34;;;;;;;9.18;5.43;;;;;;;;;;6358190;22;20018;-75
2023/04/20 12:22:20;;;;;;;6.50;5.03;;;;;;;;;;6358530;22;20019;-76
2023/04/20 12:25:06;;;;;;;7.80;5.75;;;;;;;;;;6358006;22;20018;-76
2023/04/20 12:27:51;;;;;;;9.60;6.38;;;;;;;;;;6358687;22;20321;-76
2023/04/20 12:30:36;;;;;;;9.98;6.10;;;;;;;;;;6357329;22;20014;-77
2023/04/20 12:33:22;;;;;;;11.88;6.93;;;;;;;;;;6351324;22;20015;-76
2023/04/20 12:36:08;;;;;;;7.70;5.75;;;;;;;;;;6351379;22;20019;-76
2023/04/20 12:38:54;;;;;;;14.88;7.85;;;;;;;;;;6350862;22;20015;-77
2023/04/20 12:41:41;;;;;;;8.38;5.00;;;;;;;;;;6351162;22;20019;-76
2023/04/20 12:44:25;;;;;;;6.55;5.13;;;;;;;;;;6349466;22;20019;-76
2023/04/20 12:47:12;;;;;;;8.35;6.30;;;;;;;;;;6350798;22;20018;-77
2023/04/20 12:49:56;;;;;;;9.90;5.68;;;;;;;;;;6350756;22;20018;-76
2023/04/20 12:52:42;;;;;;;6.30;5.05;;;;;;;;;;6350572;22;20015;-76
2023/04/20 12:55:27;;;;;;;7.93;5.10;;;;;;;;;;6351167;22;20019;-77
2023/04/20 12:58:14;;;;;;;9.38;6.53;;;;;;;;;;6350587;22;20015;-76
2023/04/20 13:01:00;;;;;;;9.52;6.13;;;;;;;;;;6349375;22;20018;-76
2023/04/20 13:03:45;;;;;;;7.72;5.78;;;;;;;;;;6350604;22;20019;-77
2023/04/20 13:06:31;;;;;;;7.22;5.22;;;;;;;;;;6350664;22;20355;-76
2023/04/20 13:09:17;;;;;;;7.65;4.90;;;;;;;;;;6350634;22;20011;-78
2023/04/20 13:12:03;;;;;;;7.68;5.70;;;;;;;;;;6350477;22;20436;-76
2023/04/20 13:14:50;;;;;;;10.10;6.43;;;;;;;;;;6351015;22;20336;-76
2023/04/20 13:17:36;;;;;;;12.25;8.10;;;;;;;;;;6350490;22;20018;-76
2023/04/20 13:20:22;;;;;;;9.60;5.32;;;;;;;;;;6350333;22;20019;-76
2023/04/20 13:23:08;;;;;;;9.88;6.72;;;;;;;;;;6350912;22;20014;-76
2023/04/20 13:25:55;;;;;;;10.75;7.00;;;;;;;;;;6350693;22;20015;-78
2023/04/20 13:28:40;;;;;;;19.92;9.77;;;;;;;;;;6350691;22;20014;-77
2023/04/20 13:31:25;;;;;;;28.80;18.15;;;;;;;;;;6346020;22;20019;-76
2023/04/20 13:34:11;;;;;;;42.75;32.10;;;;;;;;;;6350385;22;20019;-78
2023/04/20 13:36:57;;;;;;;50.15;30.48;;;;;;;;;;6350560;22;20023;-76
2023/04/20 13:39:42;;;;;;;10.57;7.70;;;;;;;;;;6350206;22;20019;-76
2023/04/20 13:42:28;;;;;;;8.63;6.88;;;;;;;;;;6350320;22;20015;-77
2023/04/20 13:45:13;;;;;;;9.00;5.93;;;;;;;;;;6349739;22;20019;-76
2023/04/20 13:47:59;;;;;;;9.27;7.15;;;;;;;;;;6350099;22;20019;-76
2023/04/20 13:50:46;;;;;;;9.77;6.30;;;;;;;;;;6350008;22;20015;-78
2023/04/20 13:53:32;;;;;;;14.88;9.63;;;;;;;;;;6350194;22;20015;-77
2023/04/20 13:56:17;;;;;;;8.68;6.47;;;;;;;;;;6350127;22;20019;-77
2023/04/20 13:59:03;;;;;;;17.27;10.95;;;;;;;;;;6350608;22;20019;-77
2023/04/20 14:01:48;;;;;;;7.40;5.00;;;;;;;;;;6350019;22;20344;-78
2023/04/20 14:04:33;;;;;;;10.43;5.13;;;;;;;;;;6349171;22;20014;-79
2023/04/20 14:07:19;;;;;;;10.85;7.80;;;;;;;;;;6350396;22;20328;-77
2023/04/20 14:10:05;;;;;;;11.35;7.53;;;;;;;;;;6349869;22;20014;-77
2023/04/20 14:12:51;;;;;;;8.48;5.35;;;;;;;;;;6349887;22;20428;-77
2023/04/20 14:15:36;;;;;;;6.43;5.15;;;;;;;;;;6349851;22;20019;-77
2023/04/20 14:18:22;;;;;;;7.90;4.97;;;;;;;;;;6349935;22;20019;-79
2023/04/20 14:21:07;;;;;;;8.90;5.47;;;;;;;;;;6349872;22;20022;-78
2023/04/20 14:23:54;;;;;;;8.02;5.50;;;;;;;;;;6349832;22;20015;-77
2023/04/20 14:26:40;;;;;;;11.70;6.15;;;;;;;;;;6350254;22;20011;-79
2023/04/20 14:29:25;;;;;;;11.65;6.70;;;;;;;;;;6349905;22;20014;-79
2023/04/20 14:32:11;;;;;;;9.82;6.72;;;;;;;;;;6342788;22;20027;-77
2023/04/20 14:34:57;;;;;;;8.10;5.78;;;;;;;;;;6350265;22;20440;-79
2023/04/20 14:37:42;;;;;;;11.50;6.88;;;;;;;;;;6349740;22;20340;-77
2023/04/20 14:40:29;;;;;;;10.27;5.97;;;;;;;;;;6349752;22;20014;-77
2023/04/20 14:43:14;;;;;;;11.05;6.57;;;;;;;;;;6349550;22;20018;-77
2023/04/20 14:46:00;;;;;;;19.60;6.95;;;;;;;;;;6349902;22;20022;-79
2023/04/20 14:48:45;;;;;;;13.95;7.18;;;;;;;;;;6349716;22;20019;-79
2023/04/20 14:51:31;;;;;;;10.50;6.15;;;;;;;;;;6349430;22;20026;-79
2023/04/20 14:54:16;;;;;;;11.63;7.07;;;;;;;;;;6349666;22;20019;-77
2023/04/20 14:57:03;;;;;;;10.10;5.50;;;;;;;;;;6349838;22;20015;-77
2023/04/20 14:59:48;;;;;;;9.52;6.10;;;;;;;;;;6349681;22;20019;-76
2023/04/20 15:02:34;;;;;;;9.70;6.60;;;;;;;;;;6349936;22;20019;-76
2023/04/20 15:05:19;;;;;;;7.63;5.22;;;;;;;;;;6349468;22;20022;-77
2023/04/20 15:08:05;;;;;;;13.18;6.55;;;;;;;;;;6349439;22;20019;-76
2023/04/20 15:10:55;;;;;;;7.82;5.32;;;;;;;;;;6349595;22;20018;-79
2023/04/20 15:13:42;;;;;;;11.80;7.20;;;;;;;;;;6349469;22;20022;-77
2023/04/20 15:16:28;;;;;;;17.10;10.65;;;;;;;;;;6349912;22;20015;-77
2023/04/20 15:19:13;;;;;;;15.23;9.52;;;;;;;;;;6349230;22;20019;-77
2023/04/20 15:21:59;;;;;;;8.40;5.65;;;;;;;;;;6349854;22;20022;-77
2023/04/20 15:24:45;;;;;;;7.03;4.68;;;;;;;;;;6349215;22;20018;-77
2023/04/20 15:27:30;;;;;;;14.07;7.05;;;;;;;;;;6349805;22;20023;-77
2023/04/20 15:30:16;;;;;;;19.05;11.20;;;;;;;;;;6349403;22;20014;-77
2023/04/20 15:33:01;;;;;;;13.15;8.13;;;;;;;;;;6349510;22;20019;-77
2023/04/20 15:35:47;;;;;;;15.63;9.93;;;;;;;;;;6349773;22;20437;-77
2023/04/20 15:38:32;;;;;;;17.05;9.10;;;;;;;;;;6349315;22;20018;-79
2023/04/20 15:41:19;;;;;;;26.88;15.02;;;;;;;;;;6349797;22;20022;-77
2023/04/20 15:44:04;;;;;;;17.58;10.80;;;;;;;;;;6349395;22;20018;-79
2023/04/20 15:46:50;;;;;;;29.95;15.70;;;;;;;;;;6349263;22;20015;-77
2023/04/20 15:49:39;;;;;;;28.50;16.23;;;;;;;;;;6349333;22;20019;-79
2023/04/20 15:52:25;;;;;;;22.00;13.85;;;;;;;;;;6349081;22;20344;-84
2023/04/20 15:55:11;;;;;;;15.73;11.80;;;;;;;;;;6349650;22;20022;-84
2023/04/20 15:57:59;;;;;;;24.20;12.73;;;;;;;;;;6349665;22;20420;-77
2023/04/20 16:00:45;;;;;;;18.65;12.73;;;;;;;;;;6349375;22;20018;-76
2023/04/20 16:03:30;;;;;;;24.92;12.02;;;;;;;;;;6349209;22;20019;-76
2023/04/20 16:06:15;;;;;;;25.52;14.15;;;;;;;;;;6349531;22;20014;-83
2023/04/20 16:09:01;;;;;;;27.08;15.90;;;;;;;;;;6351201;22;20022;-77
2023/04/20 16:11:46;;;;;;;29.80;18.15;;;;;;;;;;6351119;22;20018;-77
2023/04/20 16:14:32;;;;;;;35.90;21.42;;;;;;;;;;6351433;22;20340;-85
2023/04/20 16:17:17;;;;;;;24.13;14.75;;;;;;;;;;6351587;22;20019;-84
2023/04/20 16:20:04;;;;;;;20.95;10.40;;;;;;;;;;6351492;22;20019;-81
2023/04/20 16:22:49;;;;;;;14.48;10.15;;;;;;;;;;6351128;22;20023;-74
2023/04/20 16:25:37;;;;;;;19.23;12.07;;;;;;;;;;6348392;22;20014;-75
2023/04/20 16:28:22;;;;;;;24.10;13.40;;;;;;;;;;6347945;22;20608;-78
2023/04/20 16:31:07;;;;;;;28.98;15.93;;;;;;;;;;6347749;22;20019;-79
2023/04/20 16:33:52;;;;;;;29.83;17.05;;;;;;;;;;6349415;22;20015;-78
2023/04/20 16:36:38;;;;;;;26.80;17.67;;;;;;;;;;6350776;22;20018;-76
2023/04/20 16:39:23;;;;;;;28.50;18.58;;;;;;;;;;6349721;22;20022;-79
2023/04/20 16:42:09;;;;;;;26.40;18.17;;;;;;;;;;6350208;22;20569;-78
2023/04/20 16:44:54;;;;;;;26.13;18.25;;;;;;;;;;6349493;22;20015;-79
2023/04/20 16:47:40;;;;;;;39.50;22.10;;;;;;;;;;6349719;22;20014;-77
2023/04/20 16:50:26;;;;;;;44.28;28.13;;;;;;;;;;6349229;22;20444;-77
2023/04/20 16:53:11;;;;;;;61.22;33.63;;;;;;;;;;6348206;22;20436;-79
2023/04/20 16:55:57;;;;;;;60.50;35.03;;;;;;;;;;6324983;22;20022;-77
2023/04/20 16:58:42;;;;;;;63.95;37.15;;;;;;;;;;6347948;22;20014;-77
2023/04/20 17:01:28;;;;;;;66.38;41.17;;;;;;;;;;6346446;22;20367;-77
2023/04/20 17:04:16;;;;;;;86.90;51.88;;;;;;;;;;6327168;22;20018;-81
2023/04/20 17:07:01;;;;;;;83.78;50.35;;;;;;;;;;6350251;22;20447;-80
2023/04/20 17:09:48;;;;;;;92.88;52.95;;;;;;;;;;6348036;22;20018;-77
2023/04/20 17:12:33;;;;;;;95.80;53.45;;;;;;;;;;6349256;22;20023;-80
2023/04/20 17:15:20;;;;;;;83.25;48.70;;;;;;;;;;6349058;22;20014;-79
2023/04/20 17:18:06;;;;;;;69.18;42.78;;;;;;;;;;6349120;22;20015;-81
2023/04/20 17:20:51;;;;;;;74.35;40.50;;;;;;;;;;6349922;22;20340;-80
2023/04/20 17:23:36;;;;;;;64.85;33.45;;;;;;;;;;6347903;22;20014;-78
2023/04/20 17:26:22;;;;;;;55.20;30.25;;;;;;;;;;6348544;22;20019;-81
2023/04/20 17:29:08;;;;;;;40.53;26.67;;;;;;;;;;6347424;22;20019;-80
2023/04/20 17:31:54;;;;;;;46.78;29.48;;;;;;;;;;6340843;22;20023;-77
2023/04/20 17:34:46;;;;;;;57.75;33.50;;;;;;;;;;6348609;22;20018;-76
2023/04/20 17:37:35;;;;;;;52.22;28.55;;;;;;;;;;6347767;22;20364;-74
2023/04/20 17:40:20;;;;;;;54.70;30.05;;;;;;;;;;6349192;22;20010;-78
2023/04/20 17:43:06;;;;;;;51.58;30.17;;;;;;;;;;6349800;22;20015;-76
2023/04/20 17:45:51;;;;;;;51.35;29.17;;;;;;;;;;6350599;22;20023;-78
2023/04/20 17:48:40;;;;;;;54.08;31.33;;;;;;;;;;6350044;22;20019;-76
2023/04/20 17:51:27;;;;;;;72.65;39.22;;;;;;;;;;6349391;22;20432;-86
2023/04/20 17:54:14;;;;;;;53.72;34.05;;;;;;;;;;6324705;22;20018;-78
2023/04/20 17:56:59;;;;;;;59.38;32.60;;;;;;;;;;6349311;22;20018;-80
2023/04/20 17:59:45;;;;;;;66.00;37.53;;;;;;;;;;6327124;22;20019;-78
2023/04/20 18:02:31;;;;;;;57.47;35.72;;;;;;;;;;6348014;22;20018;-75
2023/04/20 18:05:17;;;;;;;56.33;35.55;;;;;;;;;;6348388;22;20023;-75
2023/04/20 18:08:02;;;;;;;56.05;35.13;;;;;;;;;;6347917;22;20019;-77
2023/04/20 18:10:48;;;;;;;58.67;32.25;;;;;;;;;;6348832;22;20015;-76
2023/04/20 18:13:33;;;;;;;72.22;35.05;;;;;;;;;;6349889;22;20010;-79
2023/04/20 18:16:19;;;;;;;47.33;27.67;;;;;;;;;;6347283;22;20015;-79
2023/04/20 18:19:04;;;;;;;65.53;33.55;;;;;;;;;;6347863;22;20015;-79
2023/04/20 18:21:50;;;;;;;52.45;33.78;;;;;;;;;;6347974;22;20018;-79
2023/04/20 18:24:34;;;;;;;54.28;32.38;;;;;;;;;;6324177;22;20444;-78
2023/04/20 18:27:20;;;;;;;51.15;30.90;;;;;;;;;;6349627;22;20018;-78
2023/04/20 18:30:06;;;;;;;52.58;31.38;;;;;;;;;;6347884;22;20019;-78
2023/04/20 18:32:52;;;;;;;51.33;30.58;;;;;;;;;;6337133;22;20026;-80
2023/04/20 18:35:38;;;;;;;52.88;29.17;;;;;;;;;;6347722;22;20015;-79
2023/04/20 18:38:23;;;;;;;44.92;28.63;;;;;;;;;;6347506;22;20347;-79
2023/04/20 18:41:09;;;;;;;51.70;28.80;;;;;;;;;;6348477;22;20431;-79
2023/04/20 18:43:55;;;;;;;45.35;28.40;;;;;;;;;;6337878;22;20018;-79
2023/04/20 18:46:40;;;;;;;49.20;29.77;;;;;;;;;;6347101;22;20019;-79
2023/04/20 18:49:26;;;;;;;47.00;27.27;;;;;;;;;;6348214;22;20014;-79
2023/04/20 18:52:12;;;;;;;49.80;27.73;;;;;;;;;;6348395;22;20023;-79
2023/04/20 18:54:57;;;;;;;34.97;21.83;;;;;;;;;;6347775;22;20014;-80
2023/04/20 18:57:42;;;;;;;36.17;21.25;;;;;;;;;;6346910;22;20019;-80
2023/04/20 19:00:27;;;;;;;36.95;21.00;;;;;;;;;;6349901;22;20014;-80
2023/04/20 19:03:13;;;;;;;34.53;21.73;;;;;;;;;;6324395;22;20530;-78
2023/04/20 19:06:03;;;;;;;41.30;26.17;;;;;;;;;;6347047;22;20019;-79
2023/04/20 19:08:49;;;;;;;40.97;25.05;;;;;;;;;;6347705;22;20344;-81
2023/04/20 19:11:36;;;;;;;42.50;26.27;;;;;;;;;;6348949;22;20015;-80
2023/04/20 19:14:22;;;;;;;83.30;39.00;;;;;;;;;;6347138;22;20436;-79
2023/04/20 19:17:07;;;;;;;132.73;60.63;;;;;;;;;;6347805;22;20019;-78
2023/04/20 19:19:54;;;;;;;117.35;59.88;;;;;;;;;;6349002;22;20011;-80
2023/04/20 19:22:39;;;;;;;125.03;60.15;;;;;;;;;;6349209;22;20019;-78
2023/04/20 19:25:25;;;;;;;115.18;60.28;;;;;;;;;;6349092;22;20022;-80
2023/04/20 19:28:10;;;;;;;108.28;57.53;;;;;;;;;;6348631;22;20019;-80
2023/04/20 19:30:56;;;;;;;125.20;65.63;;;;;;;;;;6347001;22;20015;-79
2023/04/20 19:33:41;;;;;;;63.83;38.70;;;;;;;;;;6349695;22;20022;-80
2023/04/20 19:36:27;;;;;;;51.88;29.20;;;;;;;;;;6349799;22;20019;-79
2023/04/20 19:39:13;;;;;;;46.90;26.05;;;;;;;;;;6326093;22;20023;-80
2023/04/20 19:42:01;;;;;;;47.05;26.65;;;;;;;;;;6349755;22;20023;-78
2023/04/20 19:44:47;;;;;;;46.33;23.80;;;;;;;;;;6351360;22;20444;-79
2023/04/20 19:47:34;;;;;;;42.45;23.38;;;;;;;;;;6351455;22;20344;-79
2023/04/20 19:50:20;;;;;;;40.55;23.30;;;;;;;;;;6351518;22;20444;-78
2023/04/20 19:53:05;;;;;;;40.55;23.00;;;;;;;;;;6351175;22;20019;-78
2023/04/20 19:55:52;;;;;;;40.60;23.48;;;;;;;;;;6350977;22;20344;-79
2023/04/20 19:58:37;;;;;;;36.72;22.45;;;;;;;;;;6351206;22;20019;-79
2023/04/20 20:01:27;;;;;;;35.38;20.30;;;;;;;;;;6351357;22;20015;-81
2023/04/20 20:04:19;;;;;;;32.17;20.63;;;;;;;;;;6351419;22;20011;-79
2023/04/20 20:07:08;;;;;;;41.15;22.75;;;;;;;;;;6327114;22;20026;-79
2023/04/20 20:09:54;;;;;;;32.38;19.05;;;;;;;;;;6350828;22;20011;-79
2023/04/20 20:12:39;;;;;;;39.05;20.77;;;;;;;;;;6351018;22;20015;-80
2023/04/20 20:15:25;;;;;;;55.63;30.73;;;;;;;;;;6351246;22;20444;-79
2023/04/20 20:18:11;;;;;;;55.45;30.42;;;;;;;;;;6350981;22;20015;-79
2023/04/20 20:20:56;;;;;;;58.40;31.02;;;;;;;;;;6350664;22;20336;-78
2023/04/20 20:23:50;;;;;;;59.72;30.17;;;;;;;;;;6351500;22;20015;-78
2023/04/20 20:26:36;;;;;;;55.67;28.65;;;;;;;;;;6350917;22;20015;-79
2023/04/20 20:29:23;;;;;;;55.63;28.63;;;;;;;;;;6349712;22;20018;-80
2023/04/20 20:32:09;;;;;;;54.38;29.50;;;;;;;;;;6344325;22;20015;-78
2023/04/20 20:34:54;;;;;;;48.67;27.85;;;;;;;;;;6327814;22;20018;-80
2023/04/20 20:37:40;;;;;;;57.67;27.58;;;;;;;;;;6350170;22;20019;-79
2023/04/20 20:40:25;;;;;;;47.72;25.77;;;;;;;;;;6349621;22;20015;-78
2023/04/20 20:43:12;;;;;;;42.75;23.10;;;;;;;;;;6350966;22;20022;-78
2023/04/20 20:45:57;;;;;;;36.22;20.88;;;;;;;;;;6350736;22;20022;-79
2023/04/20 20:48:48;;;;;;;37.90;20.67;;;;;;;;;;6350975;22;20431;-79
2023/04/20 20:51:33;;;;;;;42.78;20.38;;;;;;;;;;6350760;22;20019;-77
2023/04/20 20:54:20;;;;;;;29.48;18.15;;;;;;;;;;6350962;22;20014;-81
2023/04/20 20:57:05;;;;;;;33.95;18.17;;;;;;;;;;6350806;22;20015;-77
2023/04/20 20:59:52;;;;;;;27.15;15.90;;;;;;;;;;6350659;22;20015;-80
2023/04/20 21:02:38;;;;;;;26.33;15.80;;;;;;;;;;6350826;22;20014;-81
2023/04/20 21:05:23;;;;;;;29.85;15.80;;;;;;;;;;6350691;22;20018;-78
2023/04/20 21:08:09;;;;;;;32.15;16.00;;;;;;;;;;6350867;22;20015;-78
2023/04/20 21:11:01;;;;;;;26.65;15.20;;;;;;;;;;6350656;22;20433;-80
2023/04/20 21:13:46;;;;;;;31.20;16.10;;;;;;;;;;6349838;22;20050;-77
2023/04/20 21:16:32;;;;;;;56.65;22.27;;;;;;;;;;6327498;22;20011;-77
2023/04/20 21:19:17;;;;;;;65.90;27.25;;;;;;;;;;6350647;22;20014;-79
2023/04/20 21:22:02;;;;;;;51.30;22.60;;;;;;;;;;6350358;22;20344;-79
2023/04/20 21:24:49;;;;;;;64.18;28.38;;;;;;;;;;6350564;22;20014;-79
2023/04/20 21:27:35;;;;;;;57.95;28.02;;;;;;;;;;6327370;22;20015;-79
2023/04/20 21:30:21;;;;;;;78.18;31.48;;;;;;;;;;6350535;22;20019;-80
2023/04/20 21:33:06;;;;;;;64.03;29.60;;;;;;;;;;6339808;22;20014;-81
2023/04/20 21:35:52;;;;;;;43.63;22.98;;;;;;;;;;6350680;22;20344;-79
2023/04/20 21:38:38;;;;;;;51.42;22.83;;;;;;;;;;6350359;22;20019;-77
2023/04/20 21:41:28;;;;;;;43.42;21.95;;;;;;;;;;6350324;22;20015;-77
2023/04/20 21:44:15;;;;;;;42.63;22.23;;;;;;;;;;6350339;22;20018;-80
2023/04/20 21:47:01;;;;;;;36.28;21.17;;;;;;;;;;6350145;22;20425;-77
2023/04/20 21:49:47;;;;;;;43.22;21.00;;;;;;;;;;6350188;22;20011;-76
2023/04/20 21:52:32;;;;;;;34.97;18.90;;;;;;;;;;6350326;22;20014;-79
2023/04/20 21:55:18;;;;;;;29.65;17.13;;;;;;;;;;6349665;22;20018;-80
2023/04/20 21:58:03;;;;;;;30.73;18.02;;;;;;;;;;6326848;22;20022;-77
2023/04/20 22:00:49;;;;;;;28.90;16.50;;;;;;;;;;6327069;22;20015;-79
2023/04/20 22:03:35;;;;;;;29.02;15.52;;;;;;;;;;6325795;22;20019;-77
2023/04/20 22:06:20;;;;;;;21.88;14.00;;;;;;;;;;6349968;22;20015;-79
2023/04/20 22:09:06;;;;;;;22.30;13.32;;;;;;;;;;6348970;22;20010;-76
2023/04/20 22:11:52;;;;;;;17.48;12.32;;;;;;;;;;6349058;22;20018;-79
2023/04/20 22:14:37;;;;;;;21.33;12.93;;;;;;;;;;6349745;22;20332;-79
2023/04/20 22:17:22;;;;;;;19.08;12.95;;;;;;;;;;6327138;22;20023;-76
2023/04/20 22:20:09;;;;;;;25.92;13.45;;;;;;;;;;6349370;22;20019;-77
2023/04/20 22:22:56;;;;;;;20.05;12.02;;;;;;;;;;6350101;22;20018;-78
2023/04/20 22:25:41;;;;;;;18.17;12.07;;;;;;;;;;6350418;22;20019;-79
2023/04/20 22:28:27;;;;;;;20.27;12.73;;;;;;;;;;6350161;22;20440;-77
2023/04/20 22:31:13;;;;;;;26.85;12.02;;;;;;;;;;6347900;22;20331;-78
2023/04/20 22:33:58;;;;;;;16.98;11.02;;;;;;;;;;6350059;22;20015;-78
2023/04/20 22:36:44;;;;;;;16.73;11.65;;;;;;;;;;6350002;22;20019;-79
2023/04/20 22:39:33;;;;;;;16.83;10.90;;;;;;;;;;6349815;22;20018;-76
2023/04/20 22:42:18;;;;;;;16.25;10.57;;;;;;;;;;6326771;22;20440;-78
2023/04/20 22:45:04;;;;;;;16.02;10.57;;;;;;;;;;6349947;22;20015;-76
2023/04/20 22:47:49;;;;;;;22.90;11.20;;;;;;;;;;6349825;22;20436;-78
2023/04/20 22:50:34;;;;;;;20.70;12.52;;;;;;;;;;6350268;22;20019;-77
2023/04/20 22:53:19;;;;;;;20.20;12.73;;;;;;;;;;6348937;22;20019;-77
2023/04/20 22:56:06;;;;;;;23.50;12.75;;;;;;;;;;6349881;22;20011;-78
2023/04/20 22:58:51;;;;;;;25.95;15.57;;;;;;;;;;6350062;22;20015;-76
2023/04/20 23:01:37;;;;;;;31.42;19.45;;;;;;;;;;6349539;22;20420;-77
2023/04/20 23:04:22;;;;;;;38.53;20.85;;;;;;;;;;6349765;22;20019;-76
2023/04/20 23:07:09;;;;;;;44.28;23.70;;;;;;;;;;6349572;22;20018;-77
2023/04/20 23:09:55;;;;;;;54.58;24.83;;;;;;;;;;6349802;22;20018;-76
2023/04/20 23:12:43;;;;;;;46.72;23.48;;;;;;;;;;6349568;22;20010;-76
2023/04/20 23:15:28;;;;;;;39.97;21.05;;;;;;;;;;6325010;22;20018;-77
2023/04/20 23:18:13;;;;;;;35.17;18.92;;;;;;;;;;6347042;22;20023;-76
2023/04/20 23:20:59;;;;;;;26.55;16.77;;;;;;;;;;6347080;22;20019;-78
2023/04/20 23:23:44;;;;;;;22.63;14.82;;;;;;;;;;6347106;22;20348;-77
2023/04/20 23:26:30;;;;;;;23.52;13.93;;;;;;;;;;6347119;22;20018;-75
2023/04/20 23:29:16;;;;;;;25.50;13.80;;;;;;;;;;6347089;22;20011;-75
2023/04/20 23:32:01;;;;;;;23.95;12.68;;;;;;;;;;6337314;22;20019;-77
2023/04/20 23:34:47;;;;;;;25.98;12.20;;;;;;;;;;6349570;22;20022;-77
2023/04/20 23:37:32;;;;;;;30.63;15.68;;;;;;;;;;6349511;22;20019;-77
2023/04/20 23:40:17;;;;;;;20.77;12.30;;;;;;;;;;6349911;22;20019;-75
2023/04/20 23:43:02;;;;;;;20.75;14.25;;;;;;;;;;6349291;22;20023;-76
2023/04/20 23:45:48;;;;;;;26.15;15.80;;;;;;;;;;6326755;22;20018;-77
2023/04/20 23:48:34;;;;;;;24.70;15.48;;;;;;;;;;6349580;22;20348;-75
2023/04/20 23:51:19;;;;;;;23.95;15.63;;;;;;;;;;6350198;22;20413;-77
2023/04/20 23:54:05;;;;;;;24.75;15.38;;;;;;;;;;6349373;22;20018;-75
2023/04/20 23:56:50;;;;;;;24.65;15.32;;;;;;;;;;6349446;22;20341;-77
2023/04/20 23:59:36;;;;;;;22.63;14.48;;;;;;;;;;6349317;22;20015;-75
